MDT,Max TemperatureF,Mean TemperatureF,Min TemperatureF,Max Dew PointF,MeanDew PointF,Min DewpointF,Max Humidity, Mean Humidity, Min Humidity, Max Sea Level PressureIn, Mean Sea Level PressureIn, Min Sea Level PressureIn, Max VisibilityMiles, Mean VisibilityMiles, Min VisibilityMiles, Max Wind SpeedMPH, Mean Wind SpeedMPH, Max Gust SpeedMPH,PrecipitationIn, CloudCover, Events, WindDirDegrees
2012-10-1,71,56,40,42,34,24,71,45,18,30.25,30.14,30.03,10,10,10,15,7,21,T,1,,356
2012-10-2,86,63,39,36,32,29,70,45,19,30.00,29.89,29.79,10,10,10,16,5,22,0.00,0,,110
2012-10-3,80,58,36,35,29,24,64,39,13,30.27,30.01,29.65,10,10,10,36,17,47,0.00,1,,328
2012-10-4,50,41,31,27,23,20,78,55,31,30.43,30.34,30.26,10,10,10,16,7,21,0.00,2,,6
2012-10-5,38,34,30,32,30,23,100,75,50,30.39,30.32,30.25,10,8,0,15,9,18,0.11,8,Fog-Snow,87
2012-10-6,40,31,21,31,29,23,100,82,64,30.44,30.34,30.26,10,5,0,13,5,15,0.17,7,Fog-Snow,43
2012-10-7,56,38,19,28,23,17,92,59,26,30.31,30.15,29.97,10,10,10,18,6,25,0.00,0,,287
2012-10-8,68,47,25,38,26,19,92,54,16,29.98,29.88,29.77,10,10,10,18,6,23,0.00,0,,339
2012-10-9,50,39,28,38,31,26,85,66,46,30.23,30.08,29.86,10,10,10,9,8,9,T,4,,5
2012-10-10,70,47,24,37,29,22,92,57,22,30.22,30.05,29.88,10,9,1,9,4,13,0.00,0,,128
2012-10-11,55,45,35,36,32,29,82,64,45,30.27,30.13,29.87,10,10,10,16,10,22,0.00,1,,61
2012-10-12,70,51,32,43,33,26,78,54,30,30.22,29.97,29.74,10,10,10,20,9,24,0.00,1,,129
2012-10-13,70,57,44,48,39,29,83,53,22,30.01,29.80,29.67,10,10,4,23,10,29,0.11,5,Rain,315
2012-10-14,70,56,42,37,34,32,70,48,25,30.16,30.07,30.01,10,10,10,17,7,22,0.00,0,,283
2012-10-15,78,57,35,38,31,26,89,52,15,30.01,29.85,29.73,10,10,10,24,9,33,0.00,1,,291
2012-10-16,75,57,39,46,38,34,80,52,23,29.78,29.56,29.34,10,10,7,43,14,59,0.11,2,Rain,283
2012-10-17,54,45,36,38,24,13,86,53,20,29.99,29.80,29.61,10,10,6,37,18,51,0.07,3,Rain,321
2012-10-18,55,45,35,22,15,7,52,34,15,30.10,30.05,30.00,10,10,10,39,21,49,0.00,0,,317
2012-10-19,73,52,30,27,23,18,63,40,16,30.06,29.87,29.69,10,10,10,9,4,13,0.00,0,,298
2012-10-20,77,61,45,28,25,20,38,26,13,29.68,29.58,29.49,10,10,10,28,9,33,0.00,1,,254
2012-10-21,62,50,38,40,35,26,85,62,39,29.93,29.80,29.59,10,10,10,16,7,20,0.00,2,,67
2012-10-22,63,50,37,41,39,36,93,68,43,29.94,29.82,29.66,10,10,7,22,11,25,0.00,4,,103
2012-10-23,74,58,42,45,38,29,100,60,20,29.84,29.69,29.59,10,6,0,24,9,32,0.00,2,Fog,26
2012-10-24,45,37,29,39,33,28,100,88,76,30.14,29.95,29.83,10,4,0,21,8,25,0.37,8,Fog-Rain-Snow,360
2012-10-25,38,29,20,29,25,19,100,85,70,30.45,30.25,30.07,10,9,3,13,5,15,0.01,5,Snow,1
2012-10-26,39,32,24,26,24,21,92,76,59,30.54,30.41,30.22,10,8,2,15,7,18,T,5,Snow,176
2012-10-27,50,38,26,26,23,20,92,62,32,30.22,30.14,30.06,10,10,7,14,5,18,0.00,1,,30
2012-10-28,62,43,24,38,31,21,92,66,40,30.13,30.04,29.93,10,10,10,26,6,32,0.00,2,,271
2012-10-29,70,52,34,40,36,32,96,64,31,30.05,29.99,29.93,10,10,10,9,7,12,0.00,0,,271
2012-10-30,71,54,36,38,33,28,79,51,22,30.09,30.03,29.95,10,10,10,17,5,23,0.00,0,,301
2012-10-31,72,51,30,35,31,28,92,57,22,30.10,30.05,30.01,10,10,10,13,5,16,0.00,0,,286